sensor_id;sensor_type;location;lat;lon;timestamp;temperature;humidity
52643;DHT22;38531;53.296;6.614;2022-09-29T06:13:49;4.00;99.90
52643;DHT22;38531;53.296;6.614;2022-09-29T06:26:59;4.20;99.90
52643;DHT22;38531;53.296;6.614;2022-09-29T06:30:22;4.10;99.90
52643;DHT22;38531;53.296;6.614;2022-09-29T06:37:42;4.20;99.90
52643;DHT22;38531;53.296;6.614;2022-09-29T07:25:53;6.00;99.90
52643;DHT22;38531;53.296;6.614;2022-09-29T10:36:14;16.50;99.90
52643;DHT22;38531;53.296;6.614;2022-09-29T12:58:54;16.20;99.90
52643;DHT22;38531;53.296;6.614;2022-09-29T13:12:36;16.10;99.90
52643;DHT22;38531;53.296;6.614;2022-09-29T13:15:41;16.30;99.90
52643;DHT22;38531;53.296;6.614;2022-09-29T13:31:00;16.50;99.90
52643;DHT22;38531;53.296;6.614;2022-09-29T14:19:04;16.40;99.90
52643;DHT22;38531;53.296;6.614;2022-09-29T14:21:52;16.50;99.90
52643;DHT22;38531;53.296;6.614;2022-09-29T14:24:39;16.30;99.90
52643;DHT22;38531;53.296;6.614;2022-09-29T14:29:59;16.40;99.90
52643;DHT22;38531;53.296;6.614;2022-09-29T14:44:05;16.00;99.90
52643;DHT22;38531;53.296;6.614;2022-09-29T14:46:41;16.00;99.90
52643;DHT22;38531;53.296;6.614;2022-09-29T14:50:08;15.90;99.90
52643;DHT22;38531;53.296;6.614;2022-09-29T15:02:20;15.60;99.90
52643;DHT22;38531;53.296;6.614;2022-09-29T15:04:49;15.60;99.90
52643;DHT22;38531;53.296;6.614;2022-09-29T15:07:29;15.40;99.90
52643;DHT22;38531;53.296;6.614;2022-09-29T15:10:00;15.40;99.90
52643;DHT22;38531;53.296;6.614;2022-09-29T15:12:33;15.50;99.90
52643;DHT22;38531;53.296;6.614;2022-09-29T15:15:03;15.40;99.90
52643;DHT22;38531;53.296;6.614;2022-09-29T15:23:21;15.30;99.90
52643;DHT22;38531;53.296;6.614;2022-09-29T15:25:49;15.20;99.90
52643;DHT22;38531;53.296;6.614;2022-09-29T15:30:52;15.10;99.90
52643;DHT22;38531;53.296;6.614;2022-09-29T15:33:23;15.20;99.90
52643;DHT22;38531;53.296;6.614;2022-09-29T15:36:05;15.10;99.90
52643;DHT22;38531;53.296;6.614;2022-09-29T15:38:34;15.10;99.90
52643;DHT22;38531;53.296;6.614;2022-09-29T15:43:43;15.10;99.90
52643;DHT22;38531;53.296;6.614;2022-09-29T15:49:08;15.10;99.90
52643;DHT22;38531;53.296;6.614;2022-09-29T15:51:42;15.10;99.90
52643;DHT22;38531;53.296;6.614;2022-09-29T15:54:33;15.20;99.90
52643;DHT22;38531;53.296;6.614;2022-09-29T15:57:05;14.80;99.90
52643;DHT22;38531;53.296;6.614;2022-09-29T15:59:57;14.90;99.90
52643;DHT22;38531;53.296;6.614;2022-09-29T16:02:40;14.70;99.90
52643;DHT22;38531;53.296;6.614;2022-09-29T16:05:11;14.70;99.90
52643;DHT22;38531;53.296;6.614;2022-09-29T16:07:47;14.60;99.90
52643;DHT22;38531;53.296;6.614;2022-09-29T16:10:18;14.50;99.90
52643;DHT22;38531;53.296;6.614;2022-09-29T16:12:53;14.80;99.90
52643;DHT22;38531;53.296;6.614;2022-09-29T16:15:30;14.50;99.90
52643;DHT22;38531;53.296;6.614;2022-09-29T16:18:02;14.40;99.90
52643;DHT22;38531;53.296;6.614;2022-09-29T16:20:32;14.30;99.90
52643;DHT22;38531;53.296;6.614;2022-09-29T16:26:31;14.20;99.90
52643;DHT22;38531;53.296;6.614;2022-09-29T16:29:30;14.10;99.90
52643;DHT22;38531;53.296;6.614;2022-09-29T16:31:56;14.10;99.90
52643;DHT22;38531;53.296;6.614;2022-09-29T16:34:31;13.80;99.90
52643;DHT22;38531;53.296;6.614;2022-09-29T16:39:32;14.00;99.90
52643;DHT22;38531;53.296;6.614;2022-09-29T16:42:01;13.90;99.90
52643;DHT22;38531;53.296;6.614;2022-09-29T16:44:59;13.90;99.90
52643;DHT22;38531;53.296;6.614;2022-09-29T16:47:29;13.90;99.90
52643;DHT22;38531;53.296;6.614;2022-09-29T16:49:59;13.80;99.90
52643;DHT22;38531;53.296;6.614;2022-09-29T16:58:45;13.70;99.90
52643;DHT22;38531;53.296;6.614;2022-09-29T17:01:26;13.60;99.90
52643;DHT22;38531;53.296;6.614;2022-09-29T17:03:52;13.60;99.90
52643;DHT22;38531;53.296;6.614;2022-09-29T17:06:18;13.50;99.90
52643;DHT22;38531;53.296;6.614;2022-09-29T17:11:26;13.40;99.90
52643;DHT22;38531;53.296;6.614;2022-09-29T17:14:18;13.40;99.90
52643;DHT22;38531;53.296;6.614;2022-09-29T17:16:49;13.30;99.90
52643;DHT22;38531;53.296;6.614;2022-09-29T17:19:17;12.90;99.90
52643;DHT22;38531;53.296;6.614;2022-09-29T17:21:43;13.30;99.90
52643;DHT22;38531;53.296;6.614;2022-09-29T17:24:09;13.20;99.90
52643;DHT22;38531;53.296;6.614;2022-09-29T17:26:41;13.10;99.90
52643;DHT22;38531;53.296;6.614;2022-09-29T17:29:26;13.00;99.90
52643;DHT22;38531;53.296;6.614;2022-09-29T17:31:53;13.00;99.90
52643;DHT22;38531;53.296;6.614;2022-09-29T17:34:24;12.90;99.90
52643;DHT22;38531;53.296;6.614;2022-09-29T17:37:05;12.80;99.90
52643;DHT22;38531;53.296;6.614;2022-09-29T17:45:32;12.90;99.90
52643;DHT22;38531;53.296;6.614;2022-09-29T17:48:06;12.50;99.90
52643;DHT22;38531;53.296;6.614;2022-09-29T17:50:52;12.40;99.90
52643;DHT22;38531;53.296;6.614;2022-09-29T17:53:25;12.80;99.90
52643;DHT22;38531;53.296;6.614;2022-09-29T17:55:55;12.30;99.90
52643;DHT22;38531;53.296;6.614;2022-09-29T17:58:35;12.20;99.90
52643;DHT22;38531;53.296;6.614;2022-09-29T18:01:26;12.50;99.90
52643;DHT22;38531;53.296;6.614;2022-09-29T18:04:05;12.00;99.90
52643;DHT22;38531;53.296;6.614;2022-09-29T18:13:04;11.70;99.90
52643;DHT22;38531;53.296;6.614;2022-09-29T18:15:58;12.10;99.90
52643;DHT22;38531;53.296;6.614;2022-09-29T18:18:24;11.50;99.90
52643;DHT22;38531;53.296;6.614;2022-09-29T18:21:13;11.50;99.90
52643;DHT22;38531;53.296;6.614;2022-09-29T18:23:42;11.40;99.90
52643;DHT22;38531;53.296;6.614;2022-09-29T18:26:19;11.30;99.90
52643;DHT22;38531;53.296;6.614;2022-09-29T18:28:45;11.30;99.90
52643;DHT22;38531;53.296;6.614;2022-09-29T18:31:39;11.20;99.90
52643;DHT22;38531;53.296;6.614;2022-09-29T18:34:07;11.10;99.90
52643;DHT22;38531;53.296;6.614;2022-09-29T18:36:35;11.10;99.90
52643;DHT22;38531;53.296;6.614;2022-09-29T18:39:01;11.00;99.90
52643;DHT22;38531;53.296;6.614;2022-09-29T18:41:47;11.00;99.90
52643;DHT22;38531;53.296;6.614;2022-09-29T18:44:15;10.50;99.90
52643;DHT22;38531;53.296;6.614;2022-09-29T18:46:44;10.90;99.90
52643;DHT22;38531;53.296;6.614;2022-09-29T18:49:13;10.90;99.90
52643;DHT22;38531;53.296;6.614;2022-09-29T18:51:39;10.80;99.90
52643;DHT22;38531;53.296;6.614;2022-09-29T18:54:05;10.80;99.90
52643;DHT22;38531;53.296;6.614;2022-09-29T18:56:32;10.70;99.90
52643;DHT22;38531;53.296;6.614;2022-09-29T18:58:57;10.70;99.90
52643;DHT22;38531;53.296;6.614;2022-09-29T19:01:27;10.60;99.90
52643;DHT22;38531;53.296;6.614;2022-09-29T19:03:54;10.50;99.90
52643;DHT22;38531;53.296;6.614;2022-09-29T19:06:26;10.50;99.90
52643;DHT22;38531;53.296;6.614;2022-09-29T19:15:38;10.40;99.90
52643;DHT22;38531;53.296;6.614;2022-09-29T19:21:14;11.00;99.90
52643;DHT22;38531;53.296;6.614;2022-09-29T19:23:41;10.30;99.90
52643;DHT22;38531;53.296;6.614;2022-09-29T19:26:27;9.70;99.90
52643;DHT22;38531;53.296;6.614;2022-09-29T19:29:02;10.20;99.90
52643;DHT22;38531;53.296;6.614;2022-09-29T19:37:03;10.10;99.90
52643;DHT22;38531;53.296;6.614;2022-09-29T19:39:32;10.10;99.90
52643;DHT22;38531;53.296;6.614;2022-09-29T20:25:13;9.70;99.90
